createdAt,value
2018-08-19T00:00:59.441Z,16.33
2018-08-19T00:03:28.038Z,16.73
2018-08-19T00:05:56.613Z,23.10
2018-08-19T00:08:25.387Z,16.43
2018-08-19T00:11:06.980Z,21.33
2018-08-19T00:13:36.718Z,17.97
2018-08-19T00:16:05.508Z,15.00
2018-08-19T00:18:35.709Z,16.77
2018-08-19T00:21:08.418Z,18.40
2018-08-19T00:23:42.600Z,27.70
2018-08-19T00:26:11.475Z,17.27
2018-08-19T00:28:40.381Z,20.70
2018-08-19T00:31:08.949Z,18.60
2018-08-19T00:33:37.765Z,19.90
2018-08-19T00:36:22.931Z,18.30
2018-08-19T00:38:51.531Z,26.13
2018-08-19T00:41:20.095Z,23.53
2018-08-19T00:43:48.661Z,18.33
2018-08-19T00:46:26.731Z,16.77
2018-08-19T00:48:55.943Z,17.03
2018-08-19T00:51:25.045Z,22.63
2018-08-19T00:53:54.911Z,16.63
2018-08-19T00:56:23.951Z,24.33
2018-08-19T00:58:52.908Z,17.23
2018-08-19T01:01:34.303Z,16.33
2018-08-19T01:04:03.211Z,19.10
2018-08-19T01:06:38.650Z,17.80
2018-08-19T01:09:09.234Z,19.00
2018-08-19T01:11:38.539Z,17.53
2018-08-19T01:14:10.616Z,17.67
2018-08-19T01:16:39.196Z,17.77
2018-08-19T01:19:08.643Z,18.97
2018-08-19T01:21:37.211Z,18.10
2018-08-19T01:24:10.264Z,21.03
2018-08-19T01:26:40.091Z,19.03
2018-08-19T01:29:10.034Z,20.13
2018-08-19T01:31:38.698Z,19.60
2018-08-19T01:34:08.549Z,22.00
2018-08-19T01:36:37.194Z,22.33
2018-08-19T01:39:08.462Z,22.43
2018-08-19T01:41:37.887Z,21.00
2018-08-19T01:44:13.838Z,17.30
2018-08-19T01:46:46.971Z,21.87
2018-08-19T01:49:15.519Z,20.27
2018-08-19T01:51:44.864Z,20.13
2018-08-19T01:54:19.814Z,18.77
2018-08-19T01:56:55.091Z,20.57
2018-08-19T01:59:25.724Z,19.47
2018-08-19T02:01:57.889Z,20.50
2018-08-19T02:04:26.519Z,19.23
2018-08-19T02:06:55.262Z,18.63
2018-08-19T02:09:25.581Z,21.20
2018-08-19T02:11:55.536Z,18.70
2018-08-19T02:14:24.594Z,21.47
2018-08-19T02:16:53.895Z,20.60
2018-08-19T02:19:22.546Z,20.70
2018-08-19T02:21:51.971Z,19.77
2018-08-19T02:24:20.577Z,18.77
2018-08-19T02:26:50.899Z,19.40
2018-08-19T02:29:36.206Z,20.40
2018-08-19T02:32:07.270Z,19.00
2018-08-19T02:34:38.005Z,21.43
2018-08-19T02:37:11.265Z,22.20
2018-08-19T02:39:42.634Z,24.70
2018-08-19T02:42:23.010Z,19.93
2018-08-19T02:44:53.512Z,20.20
2018-08-19T02:47:22.394Z,21.40
2018-08-19T02:49:51.341Z,21.50
2018-08-19T02:52:33.485Z,21.60
2018-08-19T02:55:03.486Z,23.70
2018-08-19T02:57:32.993Z,23.80
2018-08-19T03:00:02.614Z,25.50
2018-08-19T03:02:36.564Z,21.87
2018-08-19T03:05:06.948Z,19.93
2018-08-19T03:07:35.557Z,20.00
2018-08-19T03:10:11.103Z,25.40
2018-08-19T03:12:40.235Z,20.03
2018-08-19T03:15:10.197Z,18.37
2018-08-19T03:17:39.046Z,20.27
2018-08-19T03:20:11.409Z,19.00
2018-08-19T03:22:39.921Z,20.17
2018-08-19T03:25:09.381Z,19.67
2018-08-19T03:27:37.894Z,19.67
2018-08-19T03:30:11.767Z,18.73
2018-08-19T03:32:48.482Z,21.83
2018-08-19T03:35:18.742Z,22.30
2018-08-19T03:37:49.728Z,21.90
2018-08-19T03:40:18.473Z,20.07
2018-08-19T03:42:47.045Z,31.73
2018-08-19T03:45:20.837Z,19.33
2018-08-19T03:47:50.590Z,21.57
2018-08-19T03:50:20.085Z,23.30
2018-08-19T03:52:48.942Z,24.83
2018-08-19T03:55:23.066Z,25.70
2018-08-19T03:57:52.139Z,27.23
2018-08-19T04:00:21.126Z,19.87
2018-08-19T04:02:49.666Z,26.33
2018-08-19T04:05:24.891Z,23.27
2018-08-19T04:07:53.454Z,22.40
2018-08-19T04:10:21.990Z,25.10
2018-08-19T04:12:50.493Z,22.27
2018-08-19T04:15:19.051Z,20.13
2018-08-19T04:17:47.525Z,22.33
2018-08-19T04:20:16.089Z,21.00
2018-08-19T04:22:44.697Z,34.83
2018-08-19T04:25:13.505Z,26.53
2018-08-19T04:27:42.766Z,19.27
2018-08-19T04:30:11.748Z,19.70
2018-08-19T04:32:40.414Z,21.80
2018-08-19T04:35:08.967Z,19.30
2018-08-19T04:37:37.566Z,20.83
2018-08-19T04:40:06.570Z,18.47
2018-08-19T04:42:35.110Z,19.13
2018-08-19T04:45:03.633Z,16.80
2018-08-19T04:47:33.595Z,18.53
2018-08-19T04:50:02.474Z,22.83
2018-08-19T04:52:33.008Z,18.83
2018-08-19T04:55:02.083Z,21.30
2018-08-19T04:57:30.661Z,23.60
2018-08-19T04:59:59.176Z,22.20
2018-08-19T05:02:27.856Z,22.73
2018-08-19T05:04:56.271Z,26.13
2018-08-19T05:07:25.108Z,23.10
2018-08-19T05:09:53.614Z,27.97
2018-08-19T05:12:22.236Z,28.37
2018-08-19T05:14:50.872Z,22.63
2018-08-19T05:17:19.469Z,23.70
2018-08-19T05:19:48.104Z,22.30
2018-08-19T05:22:16.804Z,26.10
2018-08-19T05:24:46.306Z,26.10
2018-08-19T05:27:17.159Z,26.20
2018-08-19T05:29:45.693Z,23.90
2018-08-19T05:32:16.922Z,21.17
2018-08-19T05:34:45.423Z,21.00
2018-08-19T05:37:13.974Z,24.00
2018-08-19T05:40:12.990Z,22.00
2018-08-19T05:42:42.493Z,24.60
2018-08-19T05:45:11.042Z,26.20
2018-08-19T05:47:39.631Z,25.80
2018-08-19T05:50:08.154Z,23.70
2018-08-19T05:52:36.681Z,29.63
2018-08-19T05:55:05.286Z,28.80
2018-08-19T05:57:34.922Z,27.77
2018-08-19T06:00:08.733Z,29.57
2018-08-19T06:02:44.437Z,27.93
2018-08-19T06:05:13.076Z,28.93
2018-08-19T06:07:44.183Z,33.03
2018-08-19T06:10:12.736Z,29.33
2018-08-19T06:12:41.236Z,29.53
2018-08-19T06:15:09.850Z,25.23
2018-08-19T06:17:38.419Z,26.70
2018-08-19T06:20:06.984Z,28.20
2018-08-19T06:22:39.884Z,29.70
2018-08-19T06:25:09.047Z,25.70
2018-08-19T06:27:45.576Z,31.33
2018-08-19T06:30:15.099Z,23.70
2018-08-19T06:32:44.790Z,27.23
2018-08-19T06:35:13.691Z,22.50
2018-08-19T06:37:42.283Z,23.80
2018-08-19T06:40:12.218Z,23.43
2018-08-19T06:42:40.787Z,27.00
2018-08-19T06:45:10.479Z,23.30
2018-08-19T06:47:39.109Z,30.23
2018-08-19T06:50:16.838Z,28.40
2018-08-19T06:52:45.459Z,25.63
2018-08-19T06:55:14.436Z,24.23
2018-08-19T06:57:43.513Z,26.60
2018-08-19T07:00:17.693Z,23.80
2018-08-19T07:02:47.720Z,28.27
2018-08-19T07:05:16.407Z,32.73
2018-08-19T07:07:45.108Z,30.73
2018-08-19T07:10:17.099Z,30.73
2018-08-19T07:12:46.458Z,34.00
2018-08-19T07:15:14.978Z,30.90
2018-08-19T07:17:43.499Z,28.60
2018-08-19T07:20:12.894Z,33.20
2018-08-19T07:22:41.490Z,29.33
2018-08-19T07:25:10.114Z,27.67
2018-08-19T07:27:38.642Z,31.30
2018-08-19T07:30:07.725Z,28.63
2018-08-19T07:32:36.265Z,31.90
2018-08-19T07:35:05.646Z,28.27
2018-08-19T07:37:34.223Z,28.93
2018-08-19T07:40:03.480Z,24.57
2018-08-19T07:42:32.005Z,25.00
2018-08-19T07:45:00.564Z,23.13
2018-08-19T07:47:29.051Z,27.07
2018-08-19T07:49:58.557Z,24.80
2018-08-19T07:52:27.042Z,29.57
2018-08-19T07:54:55.669Z,22.33
2018-08-19T07:57:28.663Z,22.70
2018-08-19T07:59:57.399Z,22.37
2018-08-19T08:02:28.262Z,27.00
2018-08-19T08:04:56.847Z,23.77
2018-08-19T08:07:27.974Z,20.53
2018-08-19T08:09:56.575Z,25.43
2018-08-19T08:12:25.314Z,21.80
2018-08-19T08:14:54.926Z,25.90
2018-08-19T08:17:24.991Z,20.90
2018-08-19T08:19:57.763Z,18.87
2018-08-19T08:22:28.369Z,19.27
2018-08-19T08:24:57.724Z,22.97
2018-08-19T08:27:26.685Z,20.53
2018-08-19T08:29:55.477Z,20.97
2018-08-19T08:32:24.128Z,17.43
2018-08-19T08:34:53.065Z,18.17
2018-08-19T08:37:21.623Z,17.57
2018-08-19T08:39:55.538Z,19.37
2018-08-19T08:42:28.785Z,17.23
2018-08-19T08:44:57.351Z,14.37
2018-08-19T08:47:25.938Z,17.70
2018-08-19T08:49:55.012Z,15.27
2018-08-19T08:52:23.610Z,20.33
2018-08-19T08:54:55.025Z,13.50
2018-08-19T08:57:24.766Z,17.37
2018-08-19T08:59:53.874Z,13.40
2018-08-19T09:02:22.704Z,11.43
2018-08-19T09:04:52.695Z,11.13
2018-08-19T09:07:21.904Z,13.60
2018-08-19T09:09:50.760Z,10.77
2018-08-19T09:12:57.693Z,9.93
2018-08-19T09:15:26.308Z,15.47
2018-08-19T09:17:54.917Z,9.93
2018-08-19T09:20:23.522Z,11.17
2018-08-19T09:22:52.117Z,10.30
2018-08-19T09:25:20.687Z,11.90
2018-08-19T09:27:49.468Z,10.73
2018-08-19T09:30:45.653Z,13.07
2018-08-19T09:33:14.686Z,11.93
2018-08-19T09:35:44.043Z,9.23
2018-08-19T09:38:20.230Z,8.67
2018-08-19T09:40:49.090Z,8.67
2018-08-19T09:43:18.094Z,9.60
2018-08-19T09:45:47.434Z,10.80
2018-08-19T09:48:17.111Z,24.53
2018-08-19T09:50:46.168Z,9.83
2018-08-19T09:53:15.502Z,9.00
2018-08-19T09:56:17.073Z,8.77
2018-08-19T09:58:52.019Z,8.70
2018-08-19T10:01:25.832Z,9.20
2018-08-19T10:03:55.641Z,11.27
2018-08-19T10:06:24.957Z,8.67
2018-08-19T10:08:53.585Z,9.90
2018-08-19T10:11:22.183Z,9.13
2018-08-19T10:13:55.069Z,8.47
2018-08-19T10:16:33.062Z,9.07
2018-08-19T10:19:02.178Z,8.50
2018-08-19T10:21:30.788Z,12.50
2018-08-19T10:24:04.724Z,12.93
2018-08-19T10:26:33.339Z,9.27
2018-08-19T10:29:01.989Z,9.03
2018-08-19T10:31:30.656Z,10.53
2018-08-19T10:33:59.231Z,13.57
2018-08-19T10:36:27.781Z,9.10
2018-08-19T10:38:56.989Z,9.50
2018-08-19T10:41:25.628Z,8.90
2018-08-19T10:43:54.278Z,7.50
2018-08-19T10:46:22.862Z,8.90
2018-08-19T10:48:51.398Z,8.33
2018-08-19T10:51:20.009Z,8.70
2018-08-19T10:53:48.685Z,13.60
2018-08-19T10:56:17.460Z,7.30
2018-08-19T10:58:50.257Z,10.70
2018-08-19T11:01:20.408Z,9.03
2018-08-19T11:03:49.193Z,7.53
2018-08-19T11:06:17.920Z,7.60
2018-08-19T11:08:51.891Z,7.87
2018-08-19T11:11:20.403Z,9.53
2018-08-19T11:13:48.931Z,10.20
2018-08-19T11:16:18.818Z,12.67
2018-08-19T11:18:48.637Z,8.20
2018-08-19T11:21:26.464Z,8.37
2018-08-19T11:23:55.872Z,8.20
2018-08-19T11:26:24.518Z,7.35
2018-08-19T11:28:55.303Z,8.23
2018-08-19T11:31:29.210Z,8.37
2018-08-19T11:33:59.898Z,8.83
2018-08-19T11:36:34.962Z,8.60
2018-08-19T11:39:04.814Z,9.27
2018-08-19T11:41:34.365Z,12.33
2018-08-19T11:44:08.557Z,8.07
2018-08-19T11:46:37.250Z,8.13
2018-08-19T11:49:14.470Z,7.43
2018-08-19T11:51:50.126Z,8.60
2018-08-19T11:54:19.786Z,7.70
2018-08-19T11:56:55.986Z,8.10
2018-08-19T11:59:29.339Z,8.10
2018-08-19T12:01:58.327Z,7.00
2018-08-19T12:04:27.008Z,7.90
2018-08-19T12:06:55.734Z,10.30
2018-08-19T12:09:24.770Z,7.80
2018-08-19T12:11:53.384Z,7.23
2018-08-19T12:14:22.253Z,11.90
2018-08-19T12:16:59.757Z,6.60
2018-08-19T12:19:30.616Z,10.10
2018-08-19T12:22:01.338Z,7.60
2018-08-19T12:24:34.378Z,9.60
2018-08-19T12:27:04.344Z,7.70
2018-08-19T12:29:36.753Z,11.37
2018-08-19T12:32:13.958Z,9.00
2018-08-19T12:34:48.085Z,8.80
2018-08-19T12:37:17.912Z,7.43
2018-08-19T12:39:46.950Z,12.40
2018-08-19T12:42:15.532Z,7.27
2018-08-19T12:44:47.327Z,8.70
2018-08-19T12:47:19.110Z,8.27
2018-08-19T12:49:50.444Z,8.20
2018-08-19T12:52:21.417Z,7.77
2018-08-19T12:54:55.377Z,12.07
2018-08-19T12:57:25.036Z,7.90
2018-08-19T13:00:04.403Z,7.57
2018-08-19T13:02:35.777Z,6.43
2018-08-19T13:05:05.247Z,9.23
2018-08-19T13:07:34.575Z,10.00
2018-08-19T13:10:04.175Z,7.73
2018-08-19T13:12:36.924Z,7.83
2018-08-19T13:15:06.734Z,10.23
2018-08-19T13:17:35.282Z,8.27
2018-08-19T13:20:07.063Z,6.50
2018-08-19T13:22:56.109Z,6.53
2018-08-19T13:25:25.384Z,7.70
2018-08-19T13:27:53.927Z,7.17
2018-08-19T13:30:22.846Z,6.73
2018-08-19T13:32:52.641Z,6.47
2018-08-19T13:35:21.603Z,6.47
2018-08-19T13:37:50.902Z,6.70
2018-08-19T13:40:19.710Z,7.63
2018-08-19T13:42:49.904Z,5.47
2018-08-19T13:45:20.040Z,5.93
2018-08-19T13:47:50.164Z,6.10
2018-08-19T13:50:18.761Z,6.93
2018-08-19T13:52:47.485Z,4.60
2018-08-19T13:55:17.925Z,5.20
2018-08-19T13:57:46.556Z,6.63
2018-08-19T14:00:19.950Z,7.40
2018-08-19T14:02:49.118Z,5.90
2018-08-19T14:05:17.764Z,4.80
2018-08-19T14:07:46.440Z,5.10
2018-08-19T14:10:16.034Z,5.53
2018-08-19T14:12:45.273Z,5.30
2018-08-19T14:15:14.075Z,4.67
2018-08-19T14:17:42.628Z,5.53
2018-08-19T14:20:12.188Z,5.43
2018-08-19T14:22:40.956Z,6.73
2018-08-19T14:25:11.004Z,12.53
2018-08-19T14:27:39.954Z,5.20
2018-08-19T14:30:10.307Z,8.10
2018-08-19T14:32:40.484Z,6.77
2018-08-19T14:35:08.998Z,5.77
2018-08-19T14:37:37.591Z,8.57
2018-08-19T14:40:07.962Z,6.57
2018-08-19T14:42:36.523Z,5.67
2018-08-19T14:45:05.857Z,5.83
2018-08-19T14:47:34.478Z,7.80
2018-08-19T14:50:03.244Z,5.93
2018-08-19T14:52:31.829Z,6.27
2018-08-19T14:55:00.442Z,5.77
2018-08-19T14:57:29.024Z,7.40
2018-08-19T14:59:57.650Z,5.90
2018-08-19T15:02:26.246Z,6.47
2018-08-19T15:04:54.788Z,5.40
2018-08-19T15:07:23.747Z,6.53
2018-08-19T15:09:54.624Z,8.00
2018-08-19T15:12:25.463Z,8.37
2018-08-19T15:14:58.015Z,6.70
2018-08-19T15:17:27.213Z,10.30
2018-08-19T15:19:56.570Z,8.60
2018-08-19T15:22:25.018Z,6.30
2018-08-19T15:24:54.027Z,6.90
2018-08-19T15:27:22.593Z,6.17
2018-08-19T15:29:53.657Z,5.60
2018-08-19T15:32:23.478Z,9.30
2018-08-19T15:34:52.267Z,6.03
2018-08-19T15:37:21.365Z,6.03
2018-08-19T15:39:49.931Z,7.30
2018-08-19T15:42:18.491Z,6.50
2018-08-19T15:44:47.071Z,5.50
2018-08-19T15:47:15.775Z,6.67
2018-08-19T15:49:44.304Z,10.40
2018-08-19T15:52:13.032Z,5.10
2018-08-19T15:54:47.499Z,9.80
2018-08-19T15:57:16.705Z,7.80
2018-08-19T15:59:45.804Z,5.63
2018-08-19T16:02:14.900Z,6.13
2018-08-19T16:04:44.652Z,6.17
2018-08-19T16:07:14.380Z,7.47
2018-08-19T16:09:43.610Z,6.03
2018-08-19T16:12:12.164Z,6.50
2018-08-19T16:14:40.786Z,5.73
2018-08-19T16:17:09.606Z,6.50
2018-08-19T16:19:38.226Z,7.07
2018-08-19T16:22:06.844Z,7.20
2018-08-19T16:24:35.539Z,6.13
2018-08-19T16:27:04.102Z,6.10
2018-08-19T16:29:32.807Z,6.00
2018-08-19T16:32:01.478Z,6.00
2018-08-19T16:34:30.073Z,6.47
2018-08-19T16:36:58.661Z,7.73
2018-08-19T16:39:27.288Z,6.20
2018-08-19T16:41:56.001Z,7.03
2018-08-19T16:44:24.784Z,6.30
2018-08-19T16:46:53.348Z,6.40
2018-08-19T16:49:21.883Z,6.93
2018-08-19T16:51:50.462Z,5.70
2018-08-19T16:54:19.302Z,6.90
2018-08-19T16:56:47.866Z,6.90
2018-08-19T16:59:16.400Z,6.77
2018-08-19T17:01:45.103Z,7.07
2018-08-19T17:04:13.695Z,6.93
2018-08-19T17:06:42.445Z,10.77
2018-08-19T17:09:10.966Z,7.97
2018-08-19T17:11:39.597Z,7.13
2018-08-19T17:14:08.282Z,6.37
2018-08-19T17:16:36.848Z,7.33
2018-08-19T17:19:05.428Z,6.63
2018-08-19T17:21:34.030Z,6.90
2018-08-19T17:24:02.636Z,6.73
2018-08-19T17:26:31.278Z,7.00
2018-08-19T17:29:04.953Z,7.37
2018-08-19T17:31:34.636Z,11.60
2018-08-19T17:34:08.356Z,7.20
2018-08-19T17:36:37.713Z,6.57
2018-08-19T17:39:09.650Z,6.30
2018-08-19T17:41:39.241Z,7.43
2018-08-19T17:44:07.805Z,8.97
2018-08-19T17:46:36.366Z,7.70
2018-08-19T17:49:07.411Z,6.60
2018-08-19T17:51:36.456Z,7.63
2018-08-19T17:54:13.376Z,7.70
2018-08-19T17:56:41.939Z,7.63
2018-08-19T17:59:11.218Z,9.00
2018-08-19T18:01:41.096Z,6.87
2018-08-19T18:04:09.705Z,11.83
2018-08-19T18:06:38.536Z,8.60
2018-08-19T18:11:38.398Z,7.40
2018-08-19T18:14:07.000Z,8.20
2018-08-19T18:16:36.224Z,7.20
2018-08-19T18:19:04.995Z,7.20
2018-08-19T18:21:37.385Z,7.00
2018-08-19T18:24:06.498Z,7.70
2018-08-19T18:26:35.350Z,6.93
2018-08-19T18:29:04.029Z,7.70
2018-08-19T18:31:32.647Z,7.70
2018-08-19T18:34:02.134Z,7.77
2018-08-19T18:36:34.322Z,8.07
2018-08-19T18:39:04.470Z,9.20
2018-08-19T18:41:37.426Z,7.40
2018-08-19T18:44:07.694Z,7.27
2018-08-19T18:46:36.835Z,10.80
2018-08-19T18:49:13.403Z,9.43
2018-08-19T18:51:44.117Z,8.37
2018-08-19T18:54:21.310Z,10.00
2018-08-19T18:56:50.190Z,8.93
2018-08-19T18:59:18.824Z,8.23
2018-08-19T19:01:47.619Z,10.47
2018-08-19T19:04:16.152Z,7.93
2018-08-19T19:06:44.876Z,8.43
2018-08-19T19:09:13.411Z,8.53
2018-08-19T19:11:42.140Z,11.10
2018-08-19T19:14:15.840Z,11.67
2018-08-19T19:16:46.924Z,12.73
2018-08-19T19:19:16.016Z,7.93
2018-08-19T19:21:49.028Z,11.73
2018-08-19T19:24:24.641Z,8.83
2018-08-19T19:26:53.370Z,8.80
2018-08-19T19:29:26.396Z,9.87
2018-08-19T19:31:56.408Z,8.50
2018-08-19T19:34:25.144Z,10.27
2018-08-19T19:36:53.765Z,10.30
2018-08-19T19:39:22.338Z,12.90
2018-08-19T19:41:55.588Z,8.20
2018-08-19T19:44:27.530Z,8.90
2018-08-19T19:46:56.113Z,18.13
2018-08-19T19:49:24.980Z,11.87
2018-08-19T19:51:58.072Z,9.23
2018-08-19T19:54:28.005Z,8.90
2018-08-19T19:56:56.639Z,9.20
2018-08-19T19:59:28.117Z,7.37
2018-08-19T20:01:56.773Z,9.33
2018-08-19T20:04:25.450Z,8.10
2018-08-19T20:06:54.262Z,7.77
2018-08-19T20:09:22.817Z,9.77
2018-08-19T20:11:51.830Z,10.83
2018-08-19T20:14:20.487Z,8.63
2018-08-19T20:16:49.162Z,11.13
2018-08-19T20:19:18.478Z,7.87
2018-08-19T20:21:47.027Z,10.37
2018-08-19T20:24:15.626Z,13.90
2018-08-19T20:26:44.146Z,10.97
2018-08-19T20:29:13.148Z,13.10
2018-08-19T20:31:41.693Z,8.87
2018-08-19T20:34:10.305Z,12.77
2018-08-19T20:36:38.827Z,14.43
2018-08-19T20:39:07.935Z,7.87
2018-08-19T20:41:37.595Z,10.40
2018-08-19T20:44:08.553Z,9.53
2018-08-19T20:46:45.073Z,12.30
2018-08-19T20:49:13.937Z,10.53
2018-08-19T20:51:42.499Z,13.20
2018-08-19T20:54:11.247Z,9.60
2018-08-19T20:56:40.023Z,11.10
2018-08-19T20:59:08.584Z,14.17
2018-08-19T21:01:37.124Z,9.43
2018-08-19T21:04:05.992Z,18.50
2018-08-19T21:06:34.869Z,16.93
2018-08-19T21:09:03.642Z,13.40
2018-08-19T21:11:32.287Z,9.70
2018-08-19T21:14:01.470Z,9.80
2018-08-19T21:16:30.846Z,11.00
2018-08-19T21:19:00.087Z,16.30
2018-08-19T21:21:28.915Z,11.47
2018-08-19T21:23:58.072Z,15.80
2018-08-19T21:26:26.848Z,11.60
2018-08-19T21:29:01.598Z,11.87
2018-08-19T21:31:30.780Z,9.83
2018-08-19T21:33:59.345Z,18.00
2018-08-19T21:36:27.930Z,12.23
2018-08-19T21:38:57.047Z,7.90
2018-08-19T21:41:56.906Z,10.03
2018-08-19T21:44:25.546Z,9.47
2018-08-19T21:46:54.131Z,17.50
2018-08-19T21:49:22.668Z,9.90
2018-08-19T21:51:52.774Z,9.33
2018-08-19T21:54:21.590Z,14.17
2018-08-19T21:56:50.607Z,12.50
2018-08-19T21:59:24.170Z,9.70
2018-08-19T22:01:56.920Z,11.87
2018-08-19T22:04:25.882Z,10.37
2018-08-19T22:06:55.388Z,10.60
2018-08-19T22:09:30.495Z,8.87
2018-08-19T22:12:00.115Z,12.93
2018-08-19T22:14:29.191Z,39.00
2018-08-19T22:17:03.143Z,12.77
2018-08-19T22:19:32.297Z,17.70
2018-08-19T22:22:01.223Z,12.60
2018-08-19T22:24:29.777Z,9.50
2018-08-19T22:27:05.401Z,9.40
2018-08-19T22:29:33.935Z,11.10
2018-08-19T22:32:02.499Z,9.00
2018-08-19T22:34:31.142Z,10.93
2018-08-19T22:36:59.736Z,10.83
2018-08-19T22:39:28.288Z,11.40
2018-08-19T22:41:56.889Z,11.03
2018-08-19T22:44:25.877Z,15.53
2018-08-19T22:46:54.505Z,14.53
2018-08-19T22:49:24.087Z,16.93
2018-08-19T22:51:53.516Z,9.70
2018-08-19T22:54:22.182Z,13.83
2018-08-19T22:56:50.769Z,10.13
2018-08-19T22:59:19.280Z,9.90
2018-08-19T23:01:48.373Z,11.97
2018-08-19T23:04:17.903Z,10.23
2018-08-19T23:06:46.736Z,11.00
2018-08-19T23:09:15.242Z,13.17
2018-08-19T23:11:48.483Z,9.70
2018-08-19T23:14:28.026Z,11.57
2018-08-19T23:16:56.658Z,12.10
2018-08-19T23:19:26.235Z,11.43
2018-08-19T23:21:54.964Z,9.40
2018-08-19T23:24:24.151Z,14.83
2018-08-19T23:26:52.758Z,9.73
2018-08-19T23:29:21.279Z,15.73
2018-08-19T23:31:49.875Z,10.33
2018-08-19T23:34:18.476Z,11.00
2018-08-19T23:36:47.421Z,11.70
2018-08-19T23:39:16.106Z,14.60
2018-08-19T23:41:44.665Z,12.70
2018-08-19T23:44:13.749Z,11.13
2018-08-19T23:46:42.906Z,25.57
2018-08-19T23:49:11.463Z,12.33
2018-08-19T23:51:40.946Z,17.83
2018-08-19T23:54:09.484Z,10.83
2018-08-19T23:56:38.063Z,11.70
2018-08-19T23:59:06.581Z,14.10
